Pierce City, MO

8:06 AM CDT on July 25, 2014 (GMT -0500)
Monett (KHFJ) Elev 1316 ft | 36.91 °N, 94.01 °W | Change Station

Current weather conditions updated 11 minutes ago

Scattered Clouds
Scattered Clouds
70 °F
Feels Like 70 °F
N
7
Wind Variable Wind from South

Today is forecast to be Much Warmer than yesterday.

Today
High -- | Low -- °F
--% Chance of Precip.
Yesterday
High -- | Low -- °F
Precip. -- in
6:15 AM 8:28 PM
Waning Crescent, 2% visible
Pressure 30.02 in
Visibility 7.0 miles
Clouds Scattered Clouds 800 ft
Dew Point 68 °F
Humidity 94%
Rainfall 0.00 in
Snow Depth Not available.
UV 1 out of 12
Pollen 5.40 out of 12
Air Quality Not available.
Flu Activity Not available.
METAR KHFJ 251255Z AUTO 17006KT 7SM SCT008 21/20 A3002 RMK AO2

More Conditions Fewer Conditions

Pressure 30.02 in
Visibility 7.0 miles
Clouds Scattered Clouds 800 ft
Dew Point 68 °F
Humidity 94%
Rainfall 0.00 in
Snow Depth Not available.
UV 1 out of 12
Pollen 5.40 out of 12
Air Quality Not available.
Flu Activity Not available.
METAR KHFJ 251255Z AUTO 17006KT 7SM SCT008 21/20 A3002 RMK AO2

More Conditions Fewer Conditions

10-Day Weather Forecast

Almanac

Astronomy

Jul. 25, 2014 Rise Set
Actual Time 6:15 AM CDT 8:28 PM CDT
Civil Twilight 5:46 AM CDT 8:57 PM CDT
Nautical Twilight 5:10 AM CDT 9:33 PM CDT
Astronomical Twilight 4:31 AM CDT 10:12 PM CDT
Moon 5:14 AM CDT 7:27 PM CDT
Length of Visible Light 15h 11m
Length of Day
14h 12m
Tomorrow will be 1m 35s shorter.
Waning Crescent, 2% of the Moon is Illuminated
Today
Waning Crescent
Jul 26
New
Aug 3
First Quarter
Aug 10
Full
Aug 17
Last Quarter

Today's Extremes

State Highs State Lows

Community

WunderPhotos

Upload Photos

1,737,316 photos uploaded!

Nearby

Snow Depth

Station Depth Elevation
No new snow has been reported.

Earthquake Activity

City Distance Mag. Time & Date
No recent earthquake activity has been reported nearby.
Minimum magnitude displayed is 2.5.

Coastal Water Temperatures

Place Temperature
No Stations Reporting

Nearby Weather Stations

Station Location Temp. Dew Point Humidity Wind Precip. Elev Updated Type
Monett, MO 70.9 °F 68 °F 91% ESE  at  4.3 mph 0.00 in / hr 1306 ft 8:06 AM CDT Normal
Farm Road 2100, Wheaton, MO 72.1 °F 70 °F 93% South  at  7.0 mph 0.00 in / hr 1335 ft 8:06 AM CDT Rapid Fire
South east of Granby, Granby, MO 71.4 °F 69 °F 93% SE  at  6.9 mph 0.00 in / hr 1217 ft 8:06 AM CDT Rapid Fire
MesoWest MT VERNON , Freistatt, MO 70 °F 67 °F 92% SSE  at  4 mph 0.00 in / hr 1149 ft 7:00 AM CDT MADIS
RAWS MT VERNON MO, La Russell, MO 68 °F 65 °F 91% South  at  7 mph 0.00 in / hr 1266 ft 7:00 AM CDT MADIS

Show More Stations Show Fewer Stations